createdAt,value
2022-11-02T00:01:44.358Z,99517.10
2022-11-02T00:06:48.604Z,99512.19
2022-11-02T00:11:52.248Z,99514.04
2022-11-02T00:16:56.095Z,99512.54
2022-11-02T00:22:01.505Z,99504.52
2022-11-02T00:27:05.787Z,99506.79
2022-11-02T00:32:09.752Z,99508.51
2022-11-02T00:37:13.267Z,99510.67
2022-11-02T00:42:16.774Z,99505.30
2022-11-02T00:47:20.951Z,99511.33
2022-11-02T00:52:24.637Z,99512.10
2022-11-02T00:57:28.439Z,99514.85
2022-11-02T01:02:33.575Z,99514.17
2022-11-02T01:07:37.622Z,99516.63
2022-11-02T01:12:42.009Z,99511.70
2022-11-02T01:17:46.083Z,99509.38
2022-11-02T01:22:49.911Z,99507.91
2022-11-02T01:27:54.091Z,99502.94
2022-11-02T01:32:58.172Z,99504.61
2022-11-02T01:38:01.946Z,99503.05
2022-11-02T01:43:24.204Z,99503.63
2022-11-02T01:48:31.909Z,99502.45
2022-11-02T01:53:37.984Z,99502.25
2022-11-02T01:58:43.001Z,99507.03
2022-11-02T02:03:48.001Z,99507.30
2022-11-02T02:08:54.092Z,99506.52
2022-11-02T02:14:00.680Z,99511.66
2022-11-02T02:19:16.217Z,99515.08
2022-11-02T02:24:44.805Z,99511.66
2022-11-02T02:29:59.110Z,99512.83
2022-11-02T02:35:11.774Z,99512.45
2022-11-02T02:40:20.398Z,99516.08
2022-11-02T02:45:29.958Z,99513.56
2022-11-02T02:50:38.590Z,99522.52
2022-11-02T02:55:45.939Z,99525.02
2022-11-02T03:00:49.708Z,99532.98
2022-11-02T03:06:04.320Z,99534.86
2022-11-02T03:11:14.468Z,99538.56
2022-11-02T03:16:35.105Z,99545.15
2022-11-02T03:21:42.921Z,99545.11
2022-11-02T03:41:41.052Z,99551.70
2022-11-02T03:46:51.233Z,99550.52
2022-11-02T03:52:01.602Z,99554.04
2022-11-02T03:57:11.786Z,99557.72
2022-11-02T04:02:20.320Z,99561.30
2022-11-02T04:07:58.435Z,99563.52
2022-11-02T04:13:24.507Z,99570.40
2022-11-02T04:18:48.871Z,99569.56
2022-11-02T04:24:13.891Z,99568.72
2022-11-02T04:29:21.088Z,99566.73
2022-11-02T04:34:28.053Z,99576.33
2022-11-02T04:39:33.289Z,99572.80
2022-11-02T04:44:40.646Z,99577.73
2022-11-02T04:49:45.868Z,99585.42
2022-11-02T04:54:54.040Z,99586.85
2022-11-02T05:08:45.229Z,99583.21
2022-11-02T05:13:52.328Z,99580.06
2022-11-02T05:19:07.042Z,99588.17
2022-11-02T05:28:30.442Z,99595.09
2022-11-02T05:33:38.225Z,99604.48
2022-11-02T05:38:45.282Z,99600.70
2022-11-02T05:43:52.632Z,99601.32
2022-11-02T05:48:59.744Z,99608.50
2022-11-02T05:54:07.443Z,99613.57
2022-11-02T05:59:14.586Z,99614.84
2022-11-02T06:04:21.998Z,99617.58
2022-11-02T06:09:29.072Z,99621.40
2022-11-02T06:14:34.659Z,99618.21
2022-11-02T06:19:42.185Z,99626.63
2022-11-02T06:24:49.271Z,99625.30
2022-11-02T06:29:56.117Z,99631.27
2022-11-02T06:35:03.269Z,99635.52
2022-11-02T06:40:12.513Z,99637.91
2022-11-02T06:45:20.530Z,99633.03
2022-11-02T06:50:28.238Z,99634.95
2022-11-02T06:55:35.190Z,99633.18
2022-11-02T07:00:42.270Z,99639.92
2022-11-02T07:05:55.275Z,99642.33
2022-11-02T07:11:02.492Z,99644.25
2022-11-02T07:16:10.189Z,99634.22
2022-11-02T07:21:17.499Z,99640.58
2022-11-02T07:26:27.073Z,99640.81
2022-11-02T07:31:33.865Z,99629.44
2022-11-02T07:36:39.692Z,99623.99
2022-11-02T07:41:51.634Z,99625.62
2022-11-02T07:46:59.024Z,99623.89
2022-11-02T07:52:06.403Z,99622.04
2022-11-02T07:57:13.632Z,99622.02
2022-11-02T08:02:21.107Z,99623.77
2022-11-02T08:07:28.887Z,99627.14
2022-11-02T08:12:37.206Z,99624.77
2022-11-02T08:17:44.361Z,99624.44
2022-11-02T08:22:52.514Z,99625.13
2022-11-02T08:28:02.290Z,99621.50
2022-11-02T08:33:13.622Z,99619.05
2022-11-02T08:38:22.875Z,99623.45
2022-11-02T08:43:30.080Z,99620.84
2022-11-02T08:48:38.261Z,99613.55
2022-11-02T08:53:51.285Z,99616.76
2022-11-02T08:58:58.849Z,99617.45
2022-11-02T09:04:06.663Z,99616.64
2022-11-02T09:09:14.173Z,99616.02
2022-11-02T09:14:22.079Z,99612.08
2022-11-02T09:19:29.673Z,99612.48
2022-11-02T09:24:37.009Z,99612.98
2022-11-02T09:29:44.412Z,99603.99
2022-11-02T09:34:52.440Z,99605.14
2022-11-02T09:39:59.670Z,99605.91
2022-11-02T09:45:13.340Z,99601.91
2022-11-02T09:50:24.530Z,99596.25
2022-11-02T09:55:37.058Z,99592.16
2022-11-02T10:00:47.278Z,99593.11
2022-11-02T10:05:59.232Z,99592.28
2022-11-02T10:11:20.330Z,99588.98
2022-11-02T10:16:35.120Z,99592.17
2022-11-02T10:21:47.921Z,99588.93
2022-11-02T10:26:58.396Z,99585.46
2022-11-02T10:32:06.422Z,99578.27
2022-11-02T10:37:34.819Z,99576.70
2022-11-02T10:42:57.181Z,99573.26
2022-11-02T10:48:12.588Z,99574.34
2022-11-02T10:59:00.654Z,99566.91
2022-11-02T11:04:21.487Z,99566.32
2022-11-02T11:09:30.722Z,99571.93
2022-11-02T11:20:36.861Z,99566.89
2022-11-02T11:25:45.148Z,99565.83
2022-11-02T11:31:03.254Z,99563.73
2022-11-02T11:36:12.543Z,99557.96
2022-11-02T11:41:20.679Z,99560.11
2022-11-02T11:46:44.102Z,99562.52
2022-11-02T11:51:53.780Z,99558.10
2022-11-02T11:57:18.115Z,99557.50
2022-11-02T12:02:27.926Z,99557.69
2022-11-02T12:08:06.991Z,99559.52
2022-11-02T12:13:27.440Z,99557.75
2022-11-02T12:19:00.635Z,99551.27
2022-11-02T12:24:22.354Z,99553.20
2022-11-02T12:29:49.253Z,99550.84
2022-11-02T12:35:28.567Z,99546.80
2022-11-02T12:40:50.874Z,99535.39
2022-11-02T12:46:03.399Z,99531.56
2022-11-02T12:51:16.009Z,99532.80
2022-11-02T12:56:28.256Z,99534.61
2022-11-02T13:01:41.233Z,99533.25
2022-11-02T13:06:51.656Z,99531.07
2022-11-02T13:12:03.687Z,99535.23
2022-11-02T13:17:17.415Z,99537.06
2022-11-02T13:22:33.410Z,99537.29
2022-11-02T13:27:49.318Z,99537.55
2022-11-02T13:43:58.721Z,99536.33
2022-11-02T13:49:14.544Z,99540.30
2022-11-02T13:54:27.417Z,99535.23
2022-11-02T13:59:43.002Z,99535.52
2022-11-02T14:04:52.427Z,99541.45
2022-11-02T14:10:06.486Z,99539.91
2022-11-02T14:15:48.067Z,99541.38
2022-11-02T14:20:56.309Z,99541.83
2022-11-02T14:26:03.885Z,99545.52
2022-11-02T14:31:41.020Z,99545.73
2022-11-02T14:37:05.375Z,99545.19
2022-11-02T14:42:32.311Z,99548.68
2022-11-02T14:47:39.942Z,99547.52
2022-11-02T14:53:00.714Z,99546.64
2022-11-02T14:58:16.946Z,99546.30
2022-11-02T15:03:34.414Z,99548.14
2022-11-02T15:08:53.481Z,99545.53
2022-11-02T15:14:01.456Z,99548.81
2022-11-02T15:19:44.014Z,99551.77
2022-11-02T15:24:53.339Z,99555.35
2022-11-02T15:30:02.904Z,99560.23
2022-11-02T15:35:20.348Z,99563.58
2022-11-02T15:40:30.714Z,99565.02
2022-11-02T15:45:57.763Z,99571.23
2022-11-02T15:51:21.523Z,99578.38
2022-11-02T15:56:44.720Z,99585.86
2022-11-02T16:02:10.918Z,99589.66
2022-11-02T16:07:19.167Z,99595.78
2022-11-02T16:12:31.891Z,99600.27
2022-11-02T16:17:40.268Z,99606.02
2022-11-02T16:28:23.300Z,99624.84
2022-11-02T16:33:33.206Z,99624.80
2022-11-02T16:38:47.153Z,99625.25
2022-11-02T16:43:55.769Z,99632.93
2022-11-02T16:49:19.293Z,99636.34
2022-11-02T16:54:42.176Z,99639.83
2022-11-02T16:59:55.893Z,99647.77
2022-11-02T17:05:06.452Z,99649.16
2022-11-02T17:10:25.574Z,99650.08
2022-11-02T17:15:34.298Z,99654.10
2022-11-02T17:20:42.195Z,99656.27
2022-11-02T17:29:48.098Z,99663.59
2022-11-02T17:34:54.789Z,99669.11
2022-11-02T17:40:02.359Z,99671.28
2022-11-02T17:45:28.032Z,99677.48
2022-11-02T17:50:33.780Z,99674.88
2022-11-02T17:55:37.636Z,99680.04
2022-11-02T18:00:41.496Z,99685.63
2022-11-02T18:05:49.467Z,99682.79
2022-11-02T18:10:54.709Z,99690.36
2022-11-02T18:15:58.486Z,99693.99
2022-11-02T18:21:02.262Z,99692.95
2022-11-02T18:26:07.443Z,99697.77
2022-11-02T18:31:11.418Z,99697.70
2022-11-02T18:36:15.553Z,99703.35
2022-11-02T18:41:30.395Z,99708.00
2022-11-02T18:46:35.095Z,99707.19
2022-11-02T18:51:42.319Z,99713.73
2022-11-02T18:56:46.514Z,99710.92
2022-11-02T19:01:51.030Z,99716.59
2022-11-02T19:07:16.169Z,99722.52
2022-11-02T19:12:26.873Z,99721.94
2022-11-02T19:17:30.498Z,99724.84
2022-11-02T19:22:34.400Z,99731.45
2022-11-02T19:27:38.391Z,99727.45
2022-11-02T19:32:42.391Z,99735.98
2022-11-02T19:37:46.245Z,99743.34
2022-11-02T19:42:50.415Z,99749.86
2022-11-02T19:47:54.198Z,99764.38
2022-11-02T19:52:59.483Z,99771.45
2022-11-02T19:58:03.458Z,99766.81
2022-11-02T20:03:07.570Z,99774.08
2022-11-02T20:08:11.334Z,99774.41
2022-11-02T20:13:15.873Z,99784.71
2022-11-02T20:18:20.487Z,99782.73
2022-11-02T20:27:55.326Z,99776.91
2022-11-02T20:33:03.161Z,99785.52
2022-11-02T20:38:11.730Z,99796.70
2022-11-02T20:43:19.959Z,99795.72
2022-11-02T20:48:27.219Z,99792.18
2022-11-02T20:53:34.689Z,99791.20
2022-11-02T20:58:41.719Z,99793.30
2022-11-02T21:03:48.857Z,99800.32
2022-11-02T21:08:57.097Z,99800.10
2022-11-02T21:14:04.683Z,99799.34
2022-11-02T21:19:12.082Z,99802.89
2022-11-02T21:24:19.687Z,99797.46
2022-11-02T21:29:27.471Z,99788.63
2022-11-02T21:34:34.910Z,99792.65
2022-11-02T21:39:42.208Z,99789.77
2022-11-02T21:44:49.946Z,99795.11
2022-11-02T21:49:57.747Z,99803.54
2022-11-02T21:55:05.354Z,99804.63
2022-11-02T22:00:14.974Z,99806.04
2022-11-02T22:15:12.841Z,99807.52
2022-11-02T22:20:20.895Z,99807.34
2022-11-02T22:26:25.517Z,99813.66
2022-11-02T22:31:34.892Z,99817.40
2022-11-02T22:36:44.179Z,99813.41
2022-11-02T22:41:51.630Z,99811.21
2022-11-02T22:46:58.913Z,99812.21
2022-11-02T22:52:06.733Z,99805.14
2022-11-02T22:57:14.336Z,99806.56
2022-11-02T23:02:22.236Z,99808.27
2022-11-02T23:07:29.970Z,99815.56
2022-11-02T23:12:37.481Z,99819.95
2022-11-02T23:17:44.860Z,99828.27
2022-11-02T23:23:09.804Z,99828.54
2022-11-02T23:28:34.763Z,99831.12
2022-11-02T23:33:42.227Z,99833.09
2022-11-02T23:39:08.330Z,99831.44
2022-11-02T23:44:16.014Z,99839.84
2022-11-02T23:49:24.316Z,99837.07
2022-11-02T23:54:49.643Z,99838.84
2022-11-02T23:59:57.051Z,99841.96
